Temp: 20.7°C   Baro: 1012.2mb
  Wind: 4.0mph   Dir: WSW (238°)
  Rain: 0.0mm (0.0mm/hr)
  Solar: 566W/m2  Hum: 63%
 
Bath Spa Weather Station Historical Data
Daily Summary for January 7, 2020 Units:  Metric    English   Both
Daily Weekly Monthly Yearly Custom
  High: Low: Average:
Temperature: 27.6 °C 13.6 °C 20.7 °C
Dew Point: 19.8 °C 12.3 °C 16.4 °C
Humidity: 93% 58% 78%
Wind Speed: 11.9km/h 0km/h 1.4km/h
Wind Gust: 24.1km/h - -
Wind- - WSW
Pressure: 1018.8 hPa 1016.1 hPa -
Precipitation: 0.51 mm    
Historical Graphs
 
 
Tabular Data for January 7, 2020
Time Temperature Dew Point Pressure Wind Wind Speed Wind Gust Humidity Rainfall Rate (Hourly) solar
00:04 17.3 °C 15.3 °C 1017.8 hPa Calm     88% 0 mm 0 W/m2
00:09 17.2 °C 15.2 °C 1017.8 hPa Calm     88% 0 mm 0 W/m2
00:14 17.2 °C 15.2 °C 1017.8 hPa Calm     88% 0 mm 0 W/m2
00:19 17.2 °C 15.2 °C 1017.8 hPa Calm     88% 0 mm 0 W/m2
00:24 17.1 °C 15.1 °C 1017.8 hPa Calm     88% 0 mm 0 W/m2
00:29 16.9 °C 14.9 °C 1017.8 hPa Calm     88% 0 mm 0 W/m2
00:34 16.9 °C 14.9 °C 1017.8 hPa Calm     88.2% 0 mm 0 W/m2
00:39 16.8 °C 15.1 °C 1017.8 hPa Calm     89% 0 mm 0 W/m2
00:44 16.8 °C 15.1 °C 1017.5 hPa Calm     89% 0 mm 0 W/m2
00:49 16.8 °C 15 °C 1017.8 hPa Calm     89% 0 mm 0 W/m2
00:54 16.8 °C 15 °C 1017.8 hPa Calm     89% 0 mm 0 W/m2
00:59 16.7 °C 14.9 °C 1017.8 hPa Calm     89% 0 mm 0 W/m2
01:04 16.7 °C 14.8 °C 1017.8 hPa Calm     89% 0 mm 0 W/m2
01:09 16.6 °C 14.8 °C 1017.8 hPa Calm     89% 0 mm 0 W/m2
01:14 16.6 °C 14.8 °C 1017.8 hPa Calm     89.2% 0 mm 0 W/m2
01:19 16.6 °C 14.8 °C 1017.5 hPa Calm     89.4% 0 mm 0 W/m2
01:24 16.5 °C 14.7 °C 1017.5 hPa Calm     89% 0 mm 0 W/m2
01:29 16.4 °C 14.7 °C 1017.5 hPa Calm     89% 0 mm 0 W/m2
01:34 16.4 °C 14.7 °C 1017.5 hPa Calm     89.8% 0 mm 0 W/m2
01:39 16.3 °C 14.7 °C 1017.5 hPa Calm     90% 0 mm 0 W/m2
01:44 16.3 °C 14.7 °C 1017.8 hPa Calm     90% 0 mm 0 W/m2
01:49 16.2 °C 14.6 °C 1017.5 hPa Calm     90% 0 mm 0 W/m2
01:54 16.2 °C 14.6 °C 1017.5 hPa Calm     90% 0 mm 0 W/m2
01:59 16.1 °C 14.5 °C 1017.5 hPa Calm     90% 0 mm 0 W/m2
02:04 16.1 °C 14.5 °C 1017.5 hPa Calm     90% 0 mm 0 W/m2
02:09 16 °C 14.4 °C 1017.5 hPa Calm     90% 0 mm 0 W/m2
02:14 15.9 °C 14.3 °C 1017.8 hPa Calm     90% 0 mm 0 W/m2
02:19 15.9 °C 14.3 °C 1017.8 hPa Calm     90% 0 mm 0 W/m2
02:23 15.9 °C 14.3 °C 1017.5 hPa Calm     90% 0 mm 0 W/m2
02:29 15.9 °C 14.3 °C 1017.5 hPa Calm     90.4% 0 mm 0 W/m2
02:34 15.9 °C 14.4 °C 1017.5 hPa Calm     91% 0 mm 0 W/m2
02:39 15.8 °C 14.2 °C 1017.5 hPa Calm     90.4% 0 mm 0 W/m2
02:44 15.8 °C 14.2 °C 1017.5 hPa Calm     90% 0 mm 0 W/m2
02:49 15.7 °C 14.1 °C 1017.5 hPa Calm     90.2% 0 mm 0 W/m2
02:54 15.6 °C 14.1 °C 1017.5 hPa Calm     91% 0 mm 0 W/m2
02:59 15.6 °C 14.1 °C 1017.5 hPa Calm     91% 0 mm 0 W/m2
03:04 15.5 °C 14 °C 1017.2 hPa Calm     91% 0 mm 0 W/m2
03:09 15.4 °C 13.9 °C 1017.5 hPa Calm     91% 0 mm 0 W/m2
03:14 15.3 °C 13.8 °C 1017.5 hPa Calm     91% 0 mm 0 W/m2
03:19 15.3 °C 13.8 °C 1017.5 hPa Calm     91% 0 mm 0 W/m2
03:24 15.2 °C 13.7 °C 1017.5 hPa Calm     91% 0 mm 0 W/m2
03:29 15.2 °C 13.7 °C 1017.5 hPa Calm     91% 0 mm 0 W/m2
03:34 15.2 °C 13.7 °C 1017.5 hPa Calm     91% 0 mm 0 W/m2
03:39 15.2 °C 13.7 °C 1017.5 hPa Calm     91% 0 mm 0 W/m2
03:44 15.1 °C 13.6 °C 1017.5 hPa Calm     91% 0 mm 0 W/m2
03:49 15.1 °C 13.6 °C 1017.5 hPa Calm     91% 0 mm 0 W/m2
03:54 15 °C 13.5 °C 1017.5 hPa Calm     91% 0 mm 0 W/m2
03:59 14.9 °C 13.4 °C 1017.5 hPa Calm     91% 0 mm 0 W/m2
04:04 15 °C 13.5 °C 1017.5 hPa Calm     91% 0 mm 0 W/m2
04:09 14.9 °C 13.4 °C 1017.5 hPa Calm     91% 0 mm 0 W/m2
04:14 14.8 °C 13.5 °C 1017.5 hPa Calm     92% 0 mm 0 W/m2
04:19 14.7 °C 13.3 °C 1017.5 hPa Calm     91.6% 0 mm 0 W/m2
04:24 14.6 °C 13.1 °C 1017.5 hPa Calm     91% 0 mm 0 W/m2
04:29 14.6 °C 13.1 °C 1017.5 hPa Calm     91.2% 0 mm 0 W/m2
04:34 14.6 °C 13.2 °C 1017.5 hPa Calm     92% 0 mm 0 W/m2
04:39 14.4 °C 13.1 °C 1017.5 hPa Calm     92% 0 mm 0 W/m2
04:44 14.4 °C 13.1 °C 1017.5 hPa Calm     92% 0 mm 0 W/m2
04:49 14.3 °C 13 °C 1017.5 hPa Calm     92% 0 mm 0 W/m2
04:54 14.3 °C 13 °C 1017.5 hPa Calm     92% 0 mm 0 W/m2
04:59 14.2 °C 12.9 °C 1017.5 hPa Calm     92% 0 mm 0 W/m2
05:04 14.2 °C 12.8 °C 1017.5 hPa Calm     92% 0 mm 0 W/m2
05:09 14.1 °C 12.8 °C 1017.5 hPa Calm     92% 0 mm 0 W/m2
05:14 14.1 °C 12.8 °C 1017.5 hPa Calm     92% 0 mm 0 W/m2
05:19 14.1 °C 12.8 °C 1017.5 hPa Calm     92% 0 mm 0 W/m2
05:24 14.1 °C 12.8 °C 1017.5 hPa Calm     92% 0 mm 0 W/m2
05:29 13.9 °C 12.6 °C 1017.8 hPa Calm     92% 0 mm 0 W/m2
05:34 13.8 °C 12.5 °C 1017.8 hPa Calm     92% 0 mm 0 W/m2
05:39 13.8 °C 12.4 °C 1017.8 hPa Calm     92% 0 mm 0 W/m2
05:44 13.7 °C 12.4 °C 1017.8 hPa Calm     92% 0 mm 0 W/m2
05:49 13.7 °C 12.4 °C 1017.8 hPa Calm     92% 0 mm 5 W/m2
05:54 13.7 °C 12.3 °C 1017.5 hPa Calm     92% 0 mm 7 W/m2
05:59 13.6 °C 12.3 °C 1017.8 hPa Calm     92% 0 mm 9 W/m2
06:04 13.6 °C 12.3 °C 1017.8 hPa Calm     92% 0 mm 12 W/m2
06:09 13.6 °C 12.3 °C 1017.8 hPa Calm     92% 0 mm 16 W/m2
06:13 13.6 °C 12.3 °C 1017.8 hPa Calm     92% 0 mm 18 W/m2
06:19 13.6 °C 12.3 °C 1017.8 hPa Calm     92.2% 0 mm 23 W/m2
06:24 13.6 °C 12.5 °C 1017.8 hPa Calm     92.8% 0 mm 21 W/m2
06:29 13.7 °C 12.6 °C 1017.8 hPa Calm     93% 0 mm 23 W/m2
06:34 13.8 °C 12.7 °C 1017.8 hPa Calm     93% 0 mm 23 W/m2
06:39 13.8 °C 12.7 °C 1017.8 hPa Calm     93% 0 mm 25 W/m2
06:44 13.8 °C 12.8 °C 1017.8 hPa Calm     93% 0 mm 26 W/m2
06:49 13.8 °C 12.7 °C 1017.8 hPa Calm     93% 0 mm 26 W/m2
06:54 13.8 °C 12.7 °C 1017.8 hPa Calm     93% 0 mm 26 W/m2
06:59 13.8 °C 12.7 °C 1017.8 hPa Calm     93% 0 mm 28 W/m2
07:04 13.8 °C 12.7 °C 1017.8 hPa Calm     93% 0 mm 33 W/m2
07:09 13.8 °C 12.7 °C 1017.8 hPa Calm     93% 0 mm 42 W/m2
07:13 13.9 °C 12.8 °C 1017.8 hPa Calm     93% 0 mm 51 W/m2
07:19 13.9 °C 12.8 °C 1017.8 hPa Calm     93% 0 mm 62 W/m2
07:24 14.1 °C 13 °C 1017.8 hPa Calm     93% 0 mm 76 W/m2
07:29 14.2 °C 13.1 °C 1017.8 hPa Calm     93% 0 mm 95 W/m2
07:34 14.2 °C 13.2 °C 1017.8 hPa Calm     93% 0 mm 111 W/m2
07:39 14.3 °C 13.3 °C 1017.8 hPa Calm     93% 0 mm 125 W/m2
07:44 14.6 °C 13.5 °C 1017.8 hPa Calm     93% 0 mm 142 W/m2
07:48 14.7 °C 13.6 °C 1017.8 hPa Calm     93% 0 mm 156 W/m2
07:54 14.8 °C 13.7 °C 1017.8 hPa Calm     93% 0 mm 171 W/m2
07:59 15.1 °C 13.9 °C 1017.8 hPa Calm     93% 0 mm 185 W/m2
08:04 15.3 °C 14.3 °C 1017.8 hPa Calm     93% 0 mm 206 W/m2
08:09 15.8 °C 14.7 °C 1017.8 hPa Calm     93% 0 mm 221 W/m2
08:14 16.2 °C 15 °C 1017.8 hPa West 1 km/h 4.8 km/h 92.2% 0 mm 236 W/m2
08:19 16.8 °C 15.4 °C 1017.8 hPa West 2.6 km/h 6.4 km/h 91.6% 0 mm 255 W/m2
08:24 17.2 °C 15.7 °C 1017.8 hPa SSW 3.4 km/h 6.4 km/h 90.8% 0 mm 269 W/m2
08:29 17.5 °C 15.8 °C 1017.8 hPa South 2.1 km/h 6.4 km/h 89.8% 0 mm 283 W/m2
08:34 17.8 °C 16 °C 1017.5 hPa SE 3.4 km/h 8 km/h 88.8% 0 mm 301 W/m2
08:39 18.1 °C 16.1 °C 1017.5 hPa SE 2.3 km/h 4.8 km/h 87.8% 0 mm 315 W/m2
08:44 18.6 °C 16.3 °C 1017.5 hPa SE 1 km/h 4.8 km/h 86.4% 0 mm 332 W/m2
08:47 18.9 °C 16.2 °C 1017.5 hPa SE 4.2 km/h 6.4 km/h 84.7% 0 mm 343 W/m2
08:54 19.5 °C 16.6 °C 1017.5 hPa SE 1.6 km/h 6.4 km/h 83.6% 0 mm 362 W/m2
08:59 20.1 °C 16.7 °C 1017.5 hPa SE 1.6 km/h 6.4 km/h 81.2% 0 mm 373 W/m2
09:04 20.5 °C 16.7 °C 1017.5 hPa SE 0.3 km/h 4.8 km/h 79% 0 mm 399 W/m2
09:08 20.8 °C 16.6 °C 1017.5 hPa SE 2.4 km/h 6.4 km/h 76.8% 0 mm 403 W/m2
09:14 20.8 °C 16.6 °C 1017.5 hPa SE 0.6 km/h 4.8 km/h 76.4% 0 mm 418 W/m2
09:19 21.2 °C 16.7 °C 1017.5 hPa SE 2.3 km/h 6.4 km/h 75.6% 0 mm 429 W/m2
09:24 21.2 °C 16.6 °C 1017.8 hPa SE 1.9 km/h 4.8 km/h 75% 0 mm 439 W/m2
09:29 21.7 °C 16.9 °C 1017.5 hPa SE 2.1 km/h 6.4 km/h 74.2% 0 mm 455 W/m2
09:34 21.8 °C 16.8 °C 1017.5 hPa SE 2.4 km/h 6.4 km/h 73.4% 0 mm 469 W/m2
09:39 22.4 °C 17.3 °C 1017.8 hPa Calm   3.2 km/h 72.8% 0 mm 480 W/m2
09:44 22.8 °C 17.2 °C 1017.8 hPa Calm   1.6 km/h 70.6% 0 mm 499 W/m2
09:49 22.6 °C 16.8 °C 1017.8 hPa Calm   3.2 km/h 70% 0 mm 512 W/m2
09:54 23.1 °C 17.2 °C 1017.8 hPa Calm     69.6% 0 mm 531 W/m2
09:59 23.1 °C 16.9 °C 1017.8 hPa SE 0.6 km/h 4.8 km/h 68% 0 mm 563 W/m2
10:04 23.1 °C 17 °C 1017.8 hPa SSE 0.6 km/h 3.2 km/h 68.6% 0 mm 587 W/m2
10:09 23.2 °C 17 °C 1017.8 hPa WNW 5.6 km/h 9.7 km/h 68.4% 0 mm 642 W/m2
10:14 23.3 °C 16.9 °C 1017.8 hPa NW 0.6 km/h 6.4 km/h 67.4% 0 mm 735 W/m2
10:19 24.2 °C 17.3 °C 1017.8 hPa North 1 km/h 4.8 km/h 65.4% 0 mm 805 W/m2
10:24 24.8 °C 18.1 °C 1017.5 hPa NNE 0.6 km/h 3.2 km/h 66.4% 0 mm 341 W/m2
10:29 24.1 °C 17.6 °C 1017.5 hPa ENE 1 km/h 4.8 km/h 66.8% 0 mm 668 W/m2
10:34 24.3 °C 17.4 °C 1017.2 hPa Calm   3.2 km/h 65.8% 0 mm 668 W/m2
10:39 24.6 °C 17.4 °C 1017.2 hPa ENE 1.3 km/h 4.8 km/h 64.4% 0 mm 285 W/m2
10:44 24.5 °C 17.1 °C 1017.5 hPa SE 2.7 km/h 6.4 km/h 63.2% 0 mm 241 W/m2
10:49 24.3 °C 17.1 °C 1017.5 hPa SSW 0.3 km/h 6.4 km/h 64% 0 mm 197 W/m2
10:54 24.2 °C 17.1 °C 1017.8 hPa SSW 1.9 km/h 3.2 km/h 64.4% 0 mm 144 W/m2
10:59 24 °C 17.7 °C 1017.8 hPa SSW 3.2 km/h 4.8 km/h 67.8% 0.25 mm 244 W/m2
11:04 23.8 °C 18.3 °C 1017.8 hPa SW 1 km/h 6.4 km/h 71.4% 0.25 mm 373 W/m2
11:09 23.6 °C 18.5 °C 1017.8 hPa Calm     73.2% 0.25 mm 754 W/m2
11:14 23.5 °C 18.4 °C 1017.8 hPa West 1.3 km/h 6.4 km/h 73.2% 0.25 mm 768 W/m2
11:19 23.8 °C 18.4 °C 1017.5 hPa WNW 2.7 km/h 4.8 km/h 72% 0.25 mm 700 W/m2
11:24 24.2 °C 18.2 °C 1017.5 hPa WNW 1.4 km/h 6.4 km/h 69.2% 0.25 mm 689 W/m2
11:29 24.4 °C 18.4 °C 1017.5 hPa WNW 3.7 km/h 9.7 km/h 69.6% 0.25 mm 698 W/m2
11:34 25.1 °C 18.7 °C 1017.5 hPa ENE 2.1 km/h 9.7 km/h 67.6% 0.25 mm 696 W/m2
11:39 26.2 °C 18.9 °C 1017.5 hPa NE 1.6 km/h 4.8 km/h 64.2% 0.25 mm 701 W/m2
11:44 25.8 °C 18.1 °C 1017.5 hPa ENE 2.9 km/h 8 km/h 62.2% 0.25 mm 707 W/m2
11:49 26.3 °C 18.4 °C 1017.5 hPa East 2.3 km/h 9.7 km/h 62% 0.25 mm 721 W/m2
11:54 26.2 °C 18.2 °C 1017.5 hPa ENE 0.6 km/h 3.2 km/h 61.4% 0.25 mm 737 W/m2
11:59 26.2 °C 18.2 °C 1017.2 hPa East 1.6 km/h 4.8 km/h 61.4% 0.25 mm 729 W/m2
12:04 26.3 °C 18.3 °C 1017.2 hPa SE 0.3 km/h 4.8 km/h 62% 0 mm 737 W/m2
12:09 27.2 °C 18.7 °C 1017.2 hPa SE 2.1 km/h 4.8 km/h 59.6% 0 mm 740 W/m2
12:14 27 °C 18.2 °C 1017.2 hPa SE 2.1 km/h 4.8 km/h 58.6% 0 mm 747 W/m2
12:19 26.7 °C 18.2 °C 1017.2 hPa SSW 2.9 km/h 6.4 km/h 59.6% 0 mm 765 W/m2
12:24 26.4 °C 18.1 °C 1017.2 hPa SSW 1.9 km/h 4.8 km/h 60.2% 0 mm 786 W/m2
12:29 27.6 °C 18.8 °C 1017.2 hPa SW 1.9 km/h 6.4 km/h 59% 0 mm 786 W/m2
12:34 27.4 °C 18.4 °C 1017.2 hPa WSW 2.4 km/h 8 km/h 58% 0 mm 786 W/m2
12:39 27.4 °C 18.6 °C 1017.2 hPa West 4.3 km/h 9.7 km/h 58.8% 0 mm 835 W/m2
12:44 27.2 °C 18.6 °C 1017.5 hPa West 5.3 km/h 9.7 km/h 59.4% 0 mm 823 W/m2
12:49 27.2 °C 18.7 °C 1017.5 hPa WNW 4.8 km/h 11.3 km/h 59.8% 0 mm 791 W/m2
12:54 27.2 °C 18.9 °C 1017.5 hPa WNW 6.8 km/h 11.3 km/h 60.4% 0 mm 807 W/m2
12:59 27.3 °C 18.9 °C 1017.5 hPa West 5.1 km/h 11.3 km/h 60% 0 mm 846 W/m2
13:04 27.2 °C 18.8 °C 1017.5 hPa WNW 1.6 km/h 9.7 km/h 60% 0 mm 292 W/m2
13:09 26.9 °C 18.7 °C 1017.5 hPa WNW 6.9 km/h 12.9 km/h 60.6% 0 mm 394 W/m2
13:14 26.8 °C 18.8 °C 1017.5 hPa West 4.3 km/h 11.3 km/h 61.8% 0 mm 441 W/m2
13:19 27 °C 18.9 °C 1017.5 hPa West 3.4 km/h 8 km/h 61.4% 0 mm 302 W/m2
13:24 27.1 °C 18.9 °C 1017.5 hPa West 1.6 km/h 6.4 km/h 61.2% 0 mm 272 W/m2
13:29 26.9 °C 19 °C 1017.5 hPa West 4.5 km/h 8 km/h 61.8% 0 mm 276 W/m2
13:34 26.8 °C 18.8 °C 1017.5 hPa West 3.2 km/h 8 km/h 61.5% 0 mm 292 W/m2
13:39 26.8 °C 18.8 °C 1017.5 hPa WNW 2.7 km/h 8 km/h 62% 0 mm 279 W/m2
13:44 26.7 °C 18.9 °C 1017.2 hPa WNW 3.4 km/h 6.4 km/h 62.6% 0 mm 343 W/m2
13:49 26.9 °C 19.2 °C 1016.8 hPa North 3.4 km/h 8 km/h 62.6% 0 mm 265 W/m2
13:54 27.3 °C 19.3 °C 1016.8 hPa North 2.1 km/h 6.4 km/h 62% 0 mm 278 W/m2
13:59 27.6 °C 19.7 °C 1016.8 hPa North 0.3 km/h 3.2 km/h 62% 0 mm 179 W/m2
14:04 27.4 °C 19.5 °C 1016.8 hPa North 1.4 km/h 6.4 km/h 61.8% 0 mm 107 W/m2
14:08 26.7 °C 19.3 °C 1017.2 hPa NNW 5.6 km/h 8 km/h 64% 0 mm 88 W/m2
14:14 26.2 °C 19.2 °C 1017.2 hPa NW 3.7 km/h 6.4 km/h 65.8% 0 mm 91 W/m2
14:19 25.9 °C 19.1 °C 1016.8 hPa NW 3.4 km/h 6.4 km/h 66% 0 mm 91 W/m2
14:24 25.8 °C 19.1 °C 1016.8 hPa NW 1.6 km/h 6.4 km/h 66% 0 mm 72 W/m2
14:29 25.8 °C 19.2 °C 1016.8 hPa NW 2.6 km/h 6.4 km/h 67% 0 mm 83 W/m2
14:34 25.7 °C 19.3 °C 1016.8 hPa NW 2.1 km/h 4.8 km/h 68% 0 mm 109 W/m2
14:39 25.4 °C 19.6 °C 1017.2 hPa NW 1.4 km/h 4.8 km/h 70% 0 mm 125 W/m2
14:44 25.2 °C 19.7 °C 1017.2 hPa NW 1.6 km/h 4.8 km/h 71.4% 0 mm 128 W/m2
14:49 24.8 °C 19.6 °C 1017.2 hPa NW 1.9 km/h 8 km/h 72.4% 0 mm 120 W/m2
14:54 24.7 °C 19.4 °C 1017.2 hPa NW 4.7 km/h 8 km/h 72.8% 0 mm 107 W/m2
14:59 24.6 °C 19.3 °C 1016.8 hPa NW 0.3 km/h 4.8 km/h 73% 0 mm 91 W/m2
15:04 24.5 °C 19.4 °C 1016.8 hPa Calm     73.4% 0 mm 114 W/m2
15:09 24.4 °C 19.3 °C 1016.8 hPa Calm     73.2% 0 mm 158 W/m2
15:14 24.7 °C 19.8 °C 1016.8 hPa Calm     74% 0 mm 160 W/m2
15:19 24.7 °C 19.6 °C 1016.8 hPa Calm     73.2% 0 mm 156 W/m2
15:24 24.8 °C 19.6 °C 1016.8 hPa Calm     72.8% 0 mm 179 W/m2
15:29 25.1 °C 19.7 °C 1016.8 hPa Calm     72.4% 0 mm 229 W/m2
15:34 25 °C 19.6 °C 1016.8 hPa Calm     71.8% 0 mm 225 W/m2
15:39 25.1 °C 19.5 °C 1016.8 hPa Calm     71% 0 mm 246 W/m2
15:44 25.2 °C 19.3 °C 1016.5 hPa NW 2.6 km/h 8 km/h 70% 0 mm 299 W/m2
15:49 25.5 °C 19.6 °C 1016.5 hPa NW 1.6 km/h 6.4 km/h 70% 0 mm 659 W/m2
15:54 25.8 °C 19.8 °C 1016.8 hPa NW 3.9 km/h 8 km/h 69.2% 0.25 mm 659 W/m2
15:59 25.9 °C 19.7 °C 1016.5 hPa North 9.2 km/h 11.3 km/h 68.5% 0.25 mm 388 W/m2
16:04 25.8 °C 19.4 °C 1016.5 hPa NNW 4.7 km/h 9.7 km/h 67.8% 0.25 mm 438 W/m2
16:09 26 °C 19.5 °C 1016.5 hPa North 1 km/h 9.7 km/h 67.6% 0.25 mm 318 W/m2
16:14 26.4 °C 19.7 °C 1016.5 hPa Calm     66.6% 0.25 mm 322 W/m2
16:19 26.9 °C 19.8 °C 1016.5 hPa Calm   1.6 km/h 65% 0.25 mm 512 W/m2
16:24 27 °C 19.7 °C 1016.5 hPa NNW 5.3 km/h 9.7 km/h 64.4% 0.25 mm 302 W/m2
16:29 26.4 °C 19.3 °C 1016.8 hPa WNW 4.7 km/h 9.7 km/h 64.8% 0.25 mm 193 W/m2
16:34 26.1 °C 19.1 °C 1016.8 hPa WNW 6.1 km/h 9.7 km/h 65.4% 0.25 mm 128 W/m2
16:39 25.8 °C 18.9 °C 1017.2 hPa WNW 7.7 km/h 14.5 km/h 65.8% 0.25 mm 90 W/m2
16:44 25.3 °C 18 °C 1017.5 hPa WNW 11.9 km/h 20.9 km/h 64% 0.25 mm 65 W/m2
16:49 24.8 °C 17 °C 1017.5 hPa NW 10 km/h 16.1 km/h 62% 0.25 mm 69 W/m2
16:54 24.4 °C 16.9 °C 1017.2 hPa WNW 5.1 km/h 12.9 km/h 62.8% 0 mm 60 W/m2
16:59 24.3 °C 16.8 °C 1017.2 hPa NW 4.3 km/h 11.3 km/h 62.8% 0 mm 79 W/m2
17:04 24.2 °C 16.8 °C 1017.2 hPa NNW 3.4 km/h 11.3 km/h 63.2% 0 mm 90 W/m2
17:09 24.2 °C 17.1 °C 1016.5 hPa NNE 4 km/h 6.4 km/h 64.2% 0 mm 74 W/m2
17:14 24.4 °C 17.4 °C 1016.1 hPa ESE 3.9 km/h 8 km/h 65% 0 mm 54 W/m2
17:19 24.3 °C 17.3 °C 1016.1 hPa ESE 2.3 km/h 11.3 km/h 65% 0 mm 62 W/m2
17:24 24.2 °C 17.2 °C 1016.5 hPa SW 3.1 km/h 8 km/h 65.2% 0 mm 79 W/m2
17:29 24 °C 17.3 °C 1016.8 hPa West 9 km/h 17.7 km/h 66.2% 0 mm 134 W/m2
17:34 23.7 °C 17.6 °C 1016.8 hPa WNW 7.4 km/h 24.1 km/h 68.4% 0 mm 236 W/m2
17:39 23.6 °C 17.7 °C 1016.8 hPa WNW 4 km/h 9.7 km/h 69.8% 0 mm 230 W/m2
17:44 23.4 °C 17.7 °C 1016.8 hPa WNW 0.8 km/h 4.8 km/h 70.2% 0 mm 223 W/m2
17:49 23.7 °C 17.9 °C 1016.8 hPa Calm   3.2 km/h 70.2% 0 mm 236 W/m2
17:54 23.8 °C 18 °C 1016.8 hPa WNW 2.7 km/h 4.8 km/h 70% 0 mm 234 W/m2
17:59 23.8 °C 18.1 °C 1016.8 hPa WNW 1.6 km/h 4.8 km/h 70% 0 mm 338 W/m2
18:04 24.1 °C 18.3 °C 1016.8 hPa WNW 4.5 km/h 8 km/h 70% 0 mm 202 W/m2
18:09 23.9 °C 18.2 °C 1016.8 hPa WNW 3.5 km/h 8 km/h 70% 0 mm 174 W/m2
18:14 24 °C 18.2 °C 1016.8 hPa WNW 0.6 km/h 3.2 km/h 70% 0 mm 213 W/m2
18:19 24.3 °C 18.4 °C 1016.8 hPa WNW 1.6 km/h 4.8 km/h 70% 0 mm 274 W/m2
18:24 24.6 °C 18.7 °C 1016.8 hPa WNW 1.6 km/h 4.8 km/h 69.6% 0 mm 309 W/m2
18:29 24.7 °C 18.6 °C 1016.8 hPa WNW 4 km/h 6.4 km/h 68.8% 0 mm 348 W/m2
18:34 24.9 °C 18.7 °C 1016.8 hPa WNW 1.6 km/h 6.4 km/h 68.5% 0 mm 193 W/m2
18:39 24.9 °C 18.6 °C 1016.8 hPa WNW 0.3 km/h 3.2 km/h 68% 0 mm 153 W/m2
18:44 24.9 °C 18.6 °C 1016.8 hPa Calm     68% 0 mm 139 W/m2
18:49 25 °C 18.6 °C 1016.8 hPa Calm     67.6% 0 mm 97 W/m2
18:54 25 °C 18.6 °C 1016.8 hPa Calm     67.6% 0 mm 77 W/m2
18:59 25.1 °C 18.7 °C 1016.8 hPa Calm     68% 0 mm 76 W/m2
19:04 25 °C 18.7 °C 1016.8 hPa Calm     68% 0 mm 93 W/m2
19:09 25.1 °C 18.8 °C 1016.8 hPa Calm     68.4% 0 mm 91 W/m2
19:14 25.2 °C 19.1 °C 1016.8 hPa Calm     69.3% 0 mm 65 W/m2
19:19 25.2 °C 19.3 °C 1016.8 hPa Calm     70% 0 mm 91 W/m2
19:24 25.2 °C 19.3 °C 1016.8 hPa Calm     70% 0 mm 63 W/m2
19:29 25.1 °C 19.2 °C 1016.8 hPa Calm     70% 0 mm 76 W/m2
19:34 25.2 °C 19.2 °C 1016.8 hPa Calm     70% 0 mm 53 W/m2
19:39 25.2 °C 19.3 °C 1016.8 hPa Calm     70% 0 mm 51 W/m2
19:44 25.1 °C 19.2 °C 1016.8 hPa Calm     70% 0 mm 51 W/m2
19:49 24.8 °C 19.3 °C 1016.8 hPa Calm     71% 0 mm 51 W/m2
19:54 24.6 °C 19.2 °C 1016.8 hPa Calm     72% 0 mm 37 W/m2
19:59 24.3 °C 18.8 °C 1017.2 hPa Calm     71.8% 0 mm 26 W/m2
20:04 24 °C 18.7 °C 1017.2 hPa Calm     72.2% 0 mm 19 W/m2
20:09 23.8 °C 18.7 °C 1017.2 hPa Calm   3.2 km/h 73% 0 mm 16 W/m2
20:14 23.7 °C 18.6 °C 1017.2 hPa WNW 1 km/h 6.4 km/h 73.2% 0 mm 16 W/m2
20:19 23.5 °C 18.6 °C 1017.2 hPa WNW 4.5 km/h 8 km/h 74% 0 mm 14 W/m2
20:24 23.2 °C 18.3 °C 1017.2 hPa West 3.4 km/h 8 km/h 74.2% 0 mm 12 W/m2
20:29 22.8 °C 18.1 °C 1017.2 hPa West 0.8 km/h 4.8 km/h 74.8% 0 mm 9 W/m2
20:34 22.7 °C 17.9 °C 1017.2 hPa West 1.6 km/h 4.8 km/h 75% 0 mm 5 W/m2
20:38 22.4 °C 17.7 °C 1017.2 hPa West 2.4 km/h 4.8 km/h 75% 0 mm 5 W/m2
20:44 22.2 °C 17.6 °C 1017.2 hPa West 3.9 km/h 6.4 km/h 75% 0 mm 0 W/m2
20:49 22.1 °C 17.4 °C 1017.5 hPa West 2.3 km/h 8 km/h 75% 0 mm 0 W/m2
20:54 21.9 °C 17.3 °C 1017.5 hPa West 0.6 km/h 4.8 km/h 75% 0 mm 0 W/m2
20:59 21.8 °C 17.3 °C 1017.5 hPa West 0.3 km/h 4.8 km/h 75% 0 mm 0 W/m2
21:04 21.8 °C 17.2 °C 1017.8 hPa West 3.1 km/h 6.4 km/h 75% 0 mm 0 W/m2
21:09 21.5 °C 16.9 °C 1017.8 hPa WNW 3.7 km/h 8 km/h 75% 0 mm 0 W/m2
21:14 21.3 °C 16.7 °C 1017.8 hPa WNW 3.5 km/h 9.7 km/h 75% 0 mm 0 W/m2
21:19 21.1 °C 16.6 °C 1017.8 hPa WNW 6.4 km/h 9.7 km/h 75.2% 0 mm 0 W/m2
21:24 20.8 °C 16.4 °C 1017.8 hPa WNW 4.5 km/h 9.7 km/h 76% 0 mm 0 W/m2
21:29 20.7 °C 16.3 °C 1017.8 hPa WNW 1.9 km/h 8 km/h 76% 0 mm 0 W/m2
21:34 20.7 °C 16.3 °C 1017.8 hPa WNW 1 km/h 4.8 km/h 76% 0 mm 0 W/m2
21:39 20.6 °C 16.3 °C 1017.8 hPa Calm     76.2% 0 mm 0 W/m2
21:44 20.5 °C 16.3 °C 1017.8 hPa Calm     77% 0 mm 0 W/m2
21:49 20.4 °C 16.2 °C 1018.2 hPa Calm     77% 0 mm 0 W/m2
21:54 20.3 °C 16.2 °C 1018.2 hPa WNW 1.9 km/h 4.8 km/h 77% 0 mm 0 W/m2
21:59 20.1 °C 16.1 °C 1018.2 hPa WNW 3.4 km/h 4.8 km/h 78% 0 mm 0 W/m2
22:04 19.9 °C 16.1 °C 1018.2 hPa WNW 1.4 km/h 4.8 km/h 78.8% 0 mm 0 W/m2
22:09 19.8 °C 16.1 °C 1018.2 hPa WNW 2.6 km/h 4.8 km/h 79% 0 mm 0 W/m2
22:14 19.8 °C 16.1 °C 1018.2 hPa WNW 2.9 km/h 4.8 km/h 79% 0 mm 0 W/m2
22:19 19.8 °C 16.1 °C 1018.5 hPa WNW 3.2 km/h 6.4 km/h 79.3% 0 mm 0 W/m2
22:24 19.7 °C 16.2 °C 1018.5 hPa WNW 4.8 km/h 8 km/h 80% 0 mm 0 W/m2
22:29 19.6 °C 16.1 °C 1018.5 hPa WNW 1.6 km/h 6.4 km/h 80% 0 mm 0 W/m2
22:34 19.5 °C 16 °C 1018.5 hPa WNW 2.1 km/h 4.8 km/h 80% 0 mm 0 W/m2
22:39 19.4 °C 15.9 °C 1018.5 hPa WNW 0.6 km/h 4.8 km/h 80% 0 mm 0 W/m2
22:44 19.3 °C 15.9 °C 1018.5 hPa WNW 1.8 km/h 3.2 km/h 80.8% 0 mm 0 W/m2
22:49 19.3 °C 16 °C 1018.5 hPa Calm   1.6 km/h 81% 0 mm 0 W/m2
22:54 19.2 °C 15.9 °C 1018.5 hPa WNW 0.3 km/h 3.2 km/h 81% 0 mm 0 W/m2
22:59 19.2 °C 16 °C 1018.5 hPa WNW 0.6 km/h 4.8 km/h 81.6% 0 mm 0 W/m2
23:04 19.2 °C 16.1 °C 1018.5 hPa Calm     82% 0 mm 0 W/m2
23:09 19.2 °C 16.1 °C 1018.5 hPa Calm     82% 0 mm 0 W/m2
23:14 19.2 °C 16.1 °C 1018.5 hPa Calm     82% 0 mm 0 W/m2
23:19 19.2 °C 16.1 °C 1018.5 hPa Calm     82% 0 mm 0 W/m2
23:24 19.1 °C 16 °C 1018.5 hPa Calm     82.2% 0 mm 0 W/m2
23:29 18.9 °C 15.9 °C 1018.5 hPa Calm     83% 0 mm 0 W/m2
23:34 18.9 °C 15.9 °C 1018.5 hPa WNW 1.1 km/h 3.2 km/h 83% 0 mm 0 W/m2
23:39 18.9 °C 16.1 °C 1018.8 hPa WNW 1.8 km/h 4.8 km/h 84% 0 mm 0 W/m2
23:44 18.8 °C 16.1 °C 1018.8 hPa WNW 3.2 km/h 4.8 km/h 84% 0 mm 0 W/m2
23:49 18.8 °C 16 °C 1018.8 hPa WNW 1.9 km/h 6.4 km/h 84% 0 mm 0 W/m2
23:54 18.8 °C 16 °C 1018.8 hPa WNW 2.3 km/h 4.8 km/h 84% 0 mm 0 W/m2
23:59 18.8 °C 16 °C 1018.8 hPa WNW 0.6 km/h 4.8 km/h 84% 0 mm 0 W/m2
Bath Spa Weather
Compliments of Weather Underground - 2 mb